createdAt,value
2023-05-16T00:00:09.081Z,12.30
2023-05-16T00:02:37.923Z,12.30
2023-05-16T00:05:06.231Z,12.30
2023-05-16T00:07:33.845Z,12.30
2023-05-16T00:10:01.434Z,12.30
2023-05-16T00:12:29.373Z,12.30
2023-05-16T00:14:57.112Z,12.30
2023-05-16T00:17:24.906Z,12.30
2023-05-16T00:19:58.195Z,12.30
2023-05-16T00:22:25.626Z,12.30
2023-05-16T00:24:53.119Z,12.30
2023-05-16T00:27:21.581Z,12.30
2023-05-16T00:29:49.865Z,12.30
2023-05-16T00:32:18.854Z,12.30
2023-05-16T00:34:46.439Z,12.30
2023-05-16T00:37:14.477Z,12.30
2023-05-16T00:39:41.976Z,12.30
2023-05-16T00:42:09.301Z,12.20
2023-05-16T00:44:39.300Z,12.20
2023-05-16T00:47:06.896Z,12.20
2023-05-16T00:49:34.218Z,12.20
2023-05-16T00:52:01.531Z,12.20
2023-05-16T00:54:29.316Z,12.20
2023-05-16T00:56:56.955Z,12.20
2023-05-16T00:59:24.836Z,12.20
2023-05-16T01:01:52.280Z,12.20
2023-05-16T01:04:20.883Z,12.20
2023-05-16T01:06:48.226Z,12.10
2023-05-16T01:09:15.636Z,12.20
2023-05-16T01:12:07.304Z,12.10
2023-05-16T01:14:43.726Z,12.10
2023-05-16T01:17:32.898Z,12.10
2023-05-16T01:20:06.554Z,12.20
2023-05-16T01:22:48.834Z,12.10
2023-05-16T01:25:27.943Z,12.10
2023-05-16T01:27:56.406Z,12.10
2023-05-16T01:30:23.770Z,12.10
2023-05-16T01:32:51.410Z,12.10
2023-05-16T01:35:18.892Z,12.00
2023-05-16T01:37:58.101Z,12.00
2023-05-16T01:41:00.924Z,12.00
2023-05-16T01:43:34.644Z,12.00
2023-05-16T01:46:21.267Z,12.00
2023-05-16T01:49:02.184Z,12.00
2023-05-16T01:51:30.708Z,12.00
2023-05-16T01:54:01.797Z,12.00
2023-05-16T01:56:29.728Z,12.00
2023-05-16T01:58:57.596Z,11.90
2023-05-16T02:01:24.972Z,12.00
2023-05-16T02:03:52.529Z,12.00
2023-05-16T02:06:19.871Z,11.90
2023-05-16T02:08:47.256Z,11.90
2023-05-16T02:11:17.388Z,11.90
2023-05-16T02:13:47.998Z,11.90
2023-05-16T02:16:16.044Z,11.90
2023-05-16T02:18:46.343Z,11.90
2023-05-16T02:21:19.758Z,11.90
2023-05-16T02:23:55.180Z,11.90
2023-05-16T02:26:25.981Z,11.90
2023-05-16T02:28:56.500Z,11.90
2023-05-16T02:31:30.294Z,11.90
2023-05-16T02:34:01.689Z,11.90
2023-05-16T02:36:30.413Z,11.90
2023-05-16T02:38:58.099Z,11.80
2023-05-16T02:41:28.338Z,11.80
2023-05-16T02:43:58.237Z,11.90
2023-05-16T02:46:33.489Z,11.80
2023-05-16T02:49:05.016Z,11.80
2023-05-16T02:51:33.254Z,11.80
2023-05-16T02:54:06.064Z,11.80
2023-05-16T02:56:43.387Z,11.70
2023-05-16T02:59:14.834Z,11.80
2023-05-16T03:01:46.885Z,11.80
2023-05-16T03:04:14.879Z,11.80
2023-05-16T03:06:45.402Z,11.80
2023-05-16T03:09:18.875Z,11.80
2023-05-16T03:11:52.268Z,11.70
2023-05-16T03:14:22.312Z,11.70
2023-05-16T03:16:50.090Z,11.70
2023-05-16T03:19:27.322Z,11.70
2023-05-16T03:21:55.498Z,11.60
2023-05-16T03:24:42.542Z,11.60
2023-05-16T03:27:36.957Z,11.60
2023-05-16T03:30:04.875Z,11.60
2023-05-16T03:32:32.343Z,11.60
2023-05-16T03:34:59.816Z,11.60
2023-05-16T03:37:27.317Z,11.60
2023-05-16T03:39:54.752Z,11.60
2023-05-16T03:42:22.050Z,11.60
2023-05-16T03:44:49.479Z,11.60
2023-05-16T03:47:16.821Z,11.60
2023-05-16T03:49:44.209Z,11.60
2023-05-16T03:52:11.582Z,11.60
2023-05-16T03:54:38.867Z,11.60
2023-05-16T03:57:06.389Z,11.60
2023-05-16T03:59:34.620Z,11.60
2023-05-16T04:02:02.001Z,11.60
2023-05-16T04:04:29.430Z,11.60
2023-05-16T04:06:56.752Z,11.60
2023-05-16T04:09:24.053Z,11.60
2023-05-16T04:11:51.736Z,11.60
2023-05-16T04:14:19.053Z,11.60
2023-05-16T04:16:46.639Z,11.60
2023-05-16T04:19:14.145Z,11.60
2023-05-16T04:21:41.666Z,11.60
2023-05-16T04:24:08.997Z,11.50
2023-05-16T04:26:37.392Z,11.50
2023-05-16T04:29:04.749Z,11.50
2023-05-16T04:31:32.347Z,11.50
2023-05-16T04:33:59.910Z,11.50
2023-05-16T04:36:30.072Z,11.50
2023-05-16T04:38:57.773Z,11.60
2023-05-16T04:41:25.349Z,11.60
2023-05-16T04:43:53.689Z,11.60
2023-05-16T04:46:21.132Z,11.60
2023-05-16T04:48:48.512Z,11.50
2023-05-16T04:51:16.069Z,11.60
2023-05-16T04:53:43.535Z,11.60
2023-05-16T04:56:11.173Z,11.60
2023-05-16T04:58:39.243Z,11.60
2023-05-16T05:01:07.292Z,11.60
2023-05-16T05:03:36.001Z,11.60
2023-05-16T05:06:03.793Z,11.60
2023-05-16T05:08:31.151Z,11.60
2023-05-16T05:10:58.696Z,11.60
2023-05-16T05:13:26.168Z,11.70
2023-05-16T05:15:53.666Z,11.70
2023-05-16T05:18:21.008Z,11.70
2023-05-16T05:20:48.355Z,11.70
2023-05-16T05:23:15.755Z,11.70
2023-05-16T05:25:43.095Z,11.70
2023-05-16T05:28:10.403Z,11.70
2023-05-16T05:30:37.895Z,11.70
2023-05-16T05:33:05.468Z,11.60
2023-05-16T05:35:32.953Z,11.60
2023-05-16T05:38:00.486Z,11.60
2023-05-16T05:40:27.899Z,11.60
2023-05-16T05:42:55.210Z,11.60
2023-05-16T05:45:22.612Z,11.60
2023-05-16T05:47:49.986Z,11.60
2023-05-16T05:50:17.416Z,11.50
2023-05-16T05:52:44.814Z,11.50
2023-05-16T05:55:12.166Z,11.50
2023-05-16T05:57:39.741Z,11.50
2023-05-16T06:00:07.661Z,11.50
2023-05-16T06:02:35.965Z,11.50
2023-05-16T06:05:03.547Z,11.50
2023-05-16T06:07:30.936Z,11.60
2023-05-16T06:09:58.248Z,11.60
2023-05-16T06:12:25.550Z,11.60
2023-05-16T06:30:21.897Z,11.60
2023-05-16T06:32:49.570Z,11.70
2023-05-16T06:35:17.008Z,11.70
2023-05-16T06:37:44.348Z,11.70
2023-05-16T06:40:12.422Z,11.80
2023-05-16T06:42:42.761Z,11.80
2023-05-16T06:45:12.432Z,11.90
2023-05-16T06:47:39.816Z,11.90
2023-05-16T06:50:08.045Z,11.90
2023-05-16T06:52:35.428Z,12.00
2023-05-16T06:55:02.781Z,12.00
2023-05-16T06:57:30.269Z,12.00
2023-05-16T06:59:57.623Z,12.00
2023-05-16T07:02:26.188Z,12.10
2023-05-16T07:04:53.874Z,12.10
2023-05-16T07:07:23.271Z,12.10
2023-05-16T07:09:50.674Z,12.10
2023-05-16T07:12:18.347Z,12.10
2023-05-16T07:14:46.771Z,12.00
2023-05-16T07:17:14.177Z,12.10
2023-05-16T07:19:41.502Z,12.10
2023-05-16T07:22:08.950Z,12.10
2023-05-16T07:24:36.387Z,12.10
2023-05-16T07:27:03.896Z,12.10
2023-05-16T07:29:31.281Z,12.10
2023-05-16T07:31:58.741Z,12.10
2023-05-16T07:34:26.462Z,12.10
2023-05-16T07:36:53.897Z,12.10
2023-05-16T07:39:21.578Z,12.20
2023-05-16T07:41:48.911Z,12.20
2023-05-16T07:44:16.447Z,12.10
2023-05-16T07:46:45.204Z,12.10
2023-05-16T07:49:12.927Z,12.20
2023-05-16T07:51:40.455Z,12.20
2023-05-16T07:54:07.810Z,12.20
2023-05-16T07:56:35.172Z,12.20
2023-05-16T07:59:02.590Z,12.10
2023-05-16T08:01:29.989Z,12.10
2023-05-16T08:03:57.399Z,12.10
2023-05-16T08:06:25.285Z,12.10
2023-05-16T08:08:52.676Z,12.00
2023-05-16T08:11:22.504Z,12.00
2023-05-16T08:13:50.145Z,12.00
2023-05-16T08:16:17.701Z,12.00
2023-05-16T08:18:45.131Z,12.00
2023-05-16T08:21:14.175Z,12.00
2023-05-16T08:23:41.500Z,12.00
2023-05-16T08:26:08.841Z,12.00
2023-05-16T08:28:36.206Z,12.00
2023-05-16T08:31:03.900Z,12.00
2023-05-16T08:33:31.429Z,12.00
2023-05-16T08:35:59.326Z,12.00
2023-05-16T08:38:26.683Z,12.00
2023-05-16T08:40:54.066Z,12.00
2023-05-16T08:43:22.080Z,12.10
2023-05-16T08:45:49.615Z,12.10
2023-05-16T08:48:17.205Z,12.10
2023-05-16T08:50:44.662Z,12.20
2023-05-16T08:53:12.435Z,12.20
2023-05-16T08:55:40.242Z,12.20
2023-05-16T08:58:07.663Z,12.20
2023-05-16T09:00:35.171Z,12.30
2023-05-16T09:03:02.660Z,12.30
2023-05-16T09:05:30.442Z,12.40
2023-05-16T09:07:57.917Z,12.40
2023-05-16T09:10:25.458Z,12.40
2023-05-16T09:12:52.803Z,12.40
2023-05-16T09:15:21.615Z,12.50
2023-05-16T09:17:49.271Z,12.50
2023-05-16T09:20:18.539Z,12.50
2023-05-16T09:22:58.979Z,12.50
2023-05-16T09:25:30.929Z,12.50
2023-05-16T09:28:01.738Z,12.50
2023-05-16T09:30:31.534Z,12.60
2023-05-16T09:32:59.406Z,12.70
2023-05-16T09:37:57.311Z,12.90
2023-05-16T09:40:24.650Z,12.90
2023-05-16T09:43:05.757Z,12.90
2023-05-16T09:45:34.195Z,12.90
2023-05-16T09:48:06.521Z,12.90
2023-05-16T09:50:34.875Z,13.00
2023-05-16T09:53:02.727Z,13.30
2023-05-16T09:55:30.788Z,13.60
2023-05-16T09:57:58.188Z,13.90
2023-05-16T10:00:32.770Z,14.10
2023-05-16T10:03:04.846Z,14.20
2023-05-16T10:05:33.533Z,14.10
2023-05-16T10:08:01.416Z,14.20
2023-05-16T10:10:28.846Z,14.40
2023-05-16T10:12:56.566Z,14.60
2023-05-16T10:15:24.227Z,14.60
2023-05-16T10:17:54.630Z,14.80
2023-05-16T10:20:22.201Z,14.80
2023-05-16T10:22:49.612Z,14.90
2023-05-16T10:25:30.254Z,14.90
2023-05-16T10:27:58.348Z,14.70
2023-05-16T10:30:25.892Z,14.50
2023-05-16T10:32:53.453Z,14.20
2023-05-16T10:35:21.820Z,14.00
2023-05-16T10:37:49.725Z,13.90
2023-05-16T10:40:17.276Z,13.70
2023-05-16T10:42:55.851Z,13.60
2023-05-16T10:45:23.630Z,13.50
2023-05-16T10:47:55.818Z,13.40
2023-05-16T10:50:43.039Z,13.30
2023-05-16T10:53:22.722Z,13.30
2023-05-16T10:55:59.298Z,13.20
2023-05-16T10:58:39.145Z,13.10
2023-05-16T11:01:31.687Z,13.00
2023-05-16T11:04:04.894Z,13.00
2023-05-16T11:06:44.206Z,12.90
2023-05-16T11:09:17.423Z,12.90
2023-05-16T11:12:00.619Z,12.80
2023-05-16T11:14:29.245Z,12.80
2023-05-16T11:17:22.528Z,12.70
2023-05-16T11:19:51.429Z,12.60
2023-05-16T11:22:32.953Z,12.60
2023-05-16T11:25:07.258Z,12.40
2023-05-16T11:27:36.683Z,12.30
2023-05-16T11:30:06.877Z,12.20
2023-05-16T11:32:35.329Z,12.20
2023-05-16T11:35:04.117Z,12.10
2023-05-16T11:37:32.565Z,12.10
2023-05-16T11:40:01.553Z,12.10
2023-05-16T11:42:41.896Z,12.10
2023-05-16T11:45:16.138Z,12.10
2023-05-16T11:47:45.691Z,12.10
2023-05-16T11:50:14.464Z,12.20
2023-05-16T11:52:46.787Z,12.30
2023-05-16T11:55:21.497Z,12.30
2023-05-16T11:57:59.785Z,12.40
2023-05-16T12:00:27.425Z,12.50
2023-05-16T12:03:02.955Z,12.50
2023-05-16T12:05:32.016Z,12.60
2023-05-16T12:07:59.890Z,12.70
2023-05-16T12:10:27.640Z,12.70
2023-05-16T12:12:56.293Z,12.70
2023-05-16T12:15:23.664Z,12.80
2023-05-16T12:17:51.176Z,12.80
2023-05-16T12:20:18.687Z,12.80
2023-05-16T12:22:46.280Z,12.80
2023-05-16T12:25:26.376Z,12.80
2023-05-16T12:27:56.003Z,12.80
2023-05-16T12:30:24.842Z,12.90
2023-05-16T12:33:05.853Z,12.90
2023-05-16T12:35:35.504Z,12.90
2023-05-16T12:38:07.898Z,13.00
2023-05-16T12:40:37.395Z,13.00
2023-05-16T12:43:05.049Z,13.00
2023-05-16T12:45:35.346Z,13.10
2023-05-16T12:48:09.396Z,13.20
2023-05-16T12:50:37.018Z,13.20
2023-05-16T12:53:04.386Z,13.30
2023-05-16T12:55:32.697Z,13.30
2023-05-16T12:58:00.735Z,13.30
2023-05-16T13:00:28.423Z,13.30
2023-05-16T13:02:56.297Z,13.30
2023-05-16T13:05:23.744Z,13.40
2023-05-16T13:07:54.421Z,13.40
2023-05-16T13:10:21.835Z,13.50
2023-05-16T13:12:49.301Z,13.50
2023-05-16T13:15:16.863Z,13.60
2023-05-16T13:17:44.474Z,13.60
2023-05-16T13:20:15.512Z,13.60
2023-05-16T13:22:43.642Z,13.70
2023-05-16T13:25:11.461Z,13.70
2023-05-16T13:27:38.955Z,13.60
2023-05-16T13:30:07.450Z,13.60
2023-05-16T13:32:34.907Z,13.60
2023-05-16T13:35:04.044Z,13.60
2023-05-16T13:37:31.458Z,13.50
2023-05-16T13:39:58.979Z,13.40
2023-05-16T13:42:26.403Z,13.20
2023-05-16T13:44:53.760Z,13.10
2023-05-16T13:47:21.428Z,12.90
2023-05-16T13:49:48.881Z,12.80
2023-05-16T13:52:16.488Z,12.80
2023-05-16T13:54:44.106Z,12.60
2023-05-16T13:57:11.554Z,12.60
2023-05-16T14:02:10.097Z,12.50
2023-05-16T14:04:37.512Z,12.40
2023-05-16T14:07:05.340Z,12.40
2023-05-16T14:09:35.086Z,12.40
2023-05-16T14:12:05.571Z,12.40
2023-05-16T14:14:36.499Z,12.40
2023-05-16T14:17:04.288Z,12.30
2023-05-16T14:19:31.905Z,12.30
2023-05-16T14:21:59.406Z,12.20
2023-05-16T14:24:26.944Z,12.10
2023-05-16T14:26:58.071Z,12.10
2023-05-16T14:29:26.063Z,12.10
2023-05-16T14:31:53.700Z,12.00
2023-05-16T14:34:22.423Z,11.90
2023-05-16T14:36:50.902Z,11.90
2023-05-16T14:39:18.560Z,12.00
2023-05-16T14:41:46.529Z,12.00
2023-05-16T14:44:13.903Z,11.90
2023-05-16T14:46:41.477Z,11.90
2023-05-16T14:49:09.615Z,11.90
2023-05-16T14:51:37.250Z,11.90
2023-05-16T14:54:05.625Z,11.90
2023-05-16T14:56:33.825Z,11.90
2023-05-16T14:59:01.664Z,11.90
2023-05-16T15:01:29.103Z,11.90
2023-05-16T15:03:56.861Z,11.90
2023-05-16T15:06:27.486Z,11.90
2023-05-16T15:08:55.094Z,11.80
2023-05-16T15:11:22.854Z,11.90
2023-05-16T15:13:50.683Z,12.00
2023-05-16T15:16:18.273Z,11.90
2023-05-16T15:18:45.847Z,12.00
2023-05-16T15:21:13.255Z,12.00
2023-05-16T15:23:41.612Z,11.90
2023-05-16T15:26:09.035Z,12.00
2023-05-16T15:28:36.410Z,12.00
2023-05-16T15:31:05.525Z,12.00
2023-05-16T15:33:32.930Z,11.90
2023-05-16T15:36:00.802Z,11.90
2023-05-16T15:38:33.194Z,11.90
2023-05-16T15:41:16.497Z,12.00
2023-05-16T15:43:47.966Z,12.00
2023-05-16T15:46:15.644Z,12.00
2023-05-16T15:48:44.808Z,12.00
2023-05-16T15:51:13.117Z,12.00
2023-05-16T15:53:40.541Z,12.00
2023-05-16T15:56:09.041Z,12.00
2023-05-16T15:58:36.632Z,11.90
2023-05-16T16:01:04.168Z,11.90
2023-05-16T16:03:32.818Z,12.00
2023-05-16T16:06:00.210Z,11.90
2023-05-16T16:08:27.680Z,12.00
2023-05-16T16:10:55.065Z,12.00
2023-05-16T16:13:24.172Z,12.00
2023-05-16T16:15:52.048Z,12.00
2023-05-16T16:18:19.570Z,12.00
2023-05-16T16:20:47.088Z,12.00
2023-05-16T16:23:14.628Z,12.10
2023-05-16T16:25:42.060Z,12.00
2023-05-16T16:28:09.511Z,12.10
2023-05-16T16:30:36.945Z,12.10
2023-05-16T16:33:04.475Z,12.10
2023-05-16T16:35:32.063Z,12.20
2023-05-16T16:38:06.845Z,12.20
2023-05-16T16:40:35.086Z,12.20
2023-05-16T16:43:02.490Z,12.30
2023-05-16T16:45:30.136Z,12.20
2023-05-16T16:47:58.053Z,12.20
2023-05-16T16:50:25.688Z,12.20
2023-05-16T16:52:53.998Z,12.20
2023-05-16T16:55:21.504Z,12.20
2023-05-16T16:57:48.843Z,12.30
2023-05-16T17:00:17.285Z,12.30
2023-05-16T17:02:44.899Z,12.30
2023-05-16T17:05:12.512Z,12.30
2023-05-16T17:07:39.975Z,12.30
2023-05-16T17:10:07.964Z,12.30
2023-05-16T17:12:36.022Z,12.30
2023-05-16T17:15:03.672Z,12.30
2023-05-16T17:17:31.096Z,12.30
2023-05-16T17:19:58.572Z,12.30
2023-05-16T17:22:26.487Z,12.30
2023-05-16T17:24:54.007Z,12.30
2023-05-16T17:27:21.371Z,12.30
2023-05-16T17:29:48.721Z,12.30
2023-05-16T17:32:17.348Z,12.40
2023-05-16T17:34:44.739Z,12.40
2023-05-16T17:37:12.128Z,12.40
2023-05-16T17:39:39.469Z,12.40
2023-05-16T17:42:07.661Z,12.40
2023-05-16T17:44:36.214Z,12.40
2023-05-16T17:47:04.087Z,12.40
2023-05-16T17:49:31.574Z,12.40
2023-05-16T17:51:59.153Z,12.40
2023-05-16T17:54:30.567Z,12.40
2023-05-16T17:56:58.472Z,12.40
2023-05-16T17:59:27.339Z,12.40
2023-05-16T18:01:57.387Z,12.40
2023-05-16T18:04:26.097Z,12.40
2023-05-16T18:06:54.290Z,12.40
2023-05-16T18:09:21.819Z,12.40
2023-05-16T18:11:49.960Z,12.40
2023-05-16T18:14:17.452Z,12.40
2023-05-16T18:16:44.892Z,12.40
2023-05-16T18:19:12.558Z,12.40
2023-05-16T18:21:40.120Z,12.40
2023-05-16T18:24:12.702Z,12.40
2023-05-16T18:26:40.214Z,12.40
2023-05-16T18:29:08.749Z,12.40
2023-05-16T18:31:38.096Z,12.40
2023-05-16T18:34:05.532Z,12.40
2023-05-16T18:36:32.896Z,12.40
2023-05-16T18:39:00.335Z,12.40
2023-05-16T18:41:27.756Z,12.40
2023-05-16T18:43:55.118Z,12.40
2023-05-16T18:46:22.531Z,12.40
2023-05-16T18:48:50.024Z,12.40
2023-05-16T18:51:17.474Z,12.30
2023-05-16T18:53:44.902Z,12.30
2023-05-16T18:56:12.369Z,12.20
2023-05-16T18:58:39.764Z,12.10
2023-05-16T19:01:07.106Z,12.10
2023-05-16T19:03:59.427Z,12.00
2023-05-16T19:06:26.965Z,11.90
2023-05-16T19:08:54.391Z,11.90
2023-05-16T19:11:22.670Z,11.80
2023-05-16T19:13:50.054Z,11.70
2023-05-16T19:16:17.555Z,11.70
2023-05-16T19:18:47.392Z,11.70
2023-05-16T19:21:15.740Z,11.60
2023-05-16T19:23:43.169Z,11.60
2023-05-16T19:26:10.542Z,11.60
2023-05-16T19:28:37.960Z,11.60
2023-05-16T19:31:06.632Z,11.60
2023-05-16T19:33:34.003Z,11.60
2023-05-16T19:36:04.308Z,11.60
2023-05-16T19:38:31.709Z,11.50
2023-05-16T19:40:59.901Z,11.50
2023-05-16T19:43:27.335Z,11.50
2023-05-16T19:45:54.704Z,11.40
2023-05-16T19:48:22.224Z,11.40
2023-05-16T19:50:51.642Z,11.40
2023-05-16T19:53:19.078Z,11.40
2023-05-16T19:55:47.896Z,11.40
2023-05-16T19:58:16.145Z,11.40
2023-05-16T20:00:43.539Z,11.40
2023-05-16T20:03:11.502Z,11.40
2023-05-16T20:05:39.013Z,11.30
2023-05-16T20:08:06.406Z,11.30
2023-05-16T20:10:35.202Z,11.30
2023-05-16T20:13:02.576Z,11.30
2023-05-16T20:15:30.137Z,11.30
2023-05-16T20:17:57.637Z,11.30
2023-05-16T20:20:25.047Z,11.30
2023-05-16T20:22:52.440Z,11.30
2023-05-16T20:25:19.776Z,11.20
2023-05-16T20:27:47.185Z,11.20
2023-05-16T20:30:14.760Z,11.20
2023-05-16T20:32:42.171Z,11.20
2023-05-16T20:35:11.241Z,11.20
2023-05-16T20:37:38.726Z,11.30
2023-05-16T20:40:07.127Z,11.20
2023-05-16T20:42:34.774Z,11.10
2023-05-16T20:45:02.316Z,11.10
2023-05-16T20:47:29.689Z,11.10
2023-05-16T20:49:57.076Z,11.10
2023-05-16T20:52:24.450Z,11.10
2023-05-16T20:54:51.908Z,11.10
2023-05-16T20:57:19.270Z,11.10
2023-05-16T20:59:46.670Z,11.10
2023-05-16T21:02:14.074Z,11.00
2023-05-16T21:04:41.511Z,11.00
2023-05-16T21:07:11.224Z,11.00
2023-05-16T21:09:39.724Z,11.00
2023-05-16T21:12:07.505Z,10.90
2023-05-16T21:14:34.932Z,11.00
2023-05-16T21:17:02.248Z,11.00
2023-05-16T21:19:34.093Z,11.00
2023-05-16T21:22:03.882Z,11.00
2023-05-16T21:24:35.127Z,10.90
2023-05-16T21:27:03.468Z,10.90
2023-05-16T21:29:30.912Z,11.00
2023-05-16T21:31:58.772Z,10.90
2023-05-16T21:34:26.280Z,10.90
2023-05-16T21:36:53.903Z,10.90
2023-05-16T21:39:21.263Z,10.80
2023-05-16T21:41:48.649Z,10.70
2023-05-16T21:44:18.528Z,10.70
2023-05-16T21:46:46.066Z,10.70
2023-05-16T21:49:14.162Z,10.70
2023-05-16T21:51:41.537Z,10.70
2023-05-16T21:54:09.057Z,10.70
2023-05-16T21:56:36.595Z,10.60
2023-05-16T21:59:04.033Z,10.60
2023-05-16T22:01:31.403Z,10.70
2023-05-16T22:03:58.992Z,10.60
2023-05-16T22:06:26.511Z,10.60
2023-05-16T22:08:54.939Z,10.60
2023-05-16T22:11:22.382Z,10.60
2023-05-16T22:13:50.809Z,10.60
2023-05-16T22:16:18.738Z,10.60
2023-05-16T22:18:46.353Z,10.50
2023-05-16T22:21:16.173Z,10.50
2023-05-16T22:23:43.583Z,10.50
2023-05-16T22:26:11.141Z,10.50
2023-05-16T22:28:38.513Z,10.50
2023-05-16T22:31:05.932Z,10.50
2023-05-16T22:33:33.477Z,10.50
2023-05-16T22:36:03.105Z,10.40
2023-05-16T22:38:31.680Z,10.40
2023-05-16T22:40:59.240Z,10.40
2023-05-16T22:43:26.600Z,10.40
2023-05-16T22:45:54.054Z,10.40
2023-05-16T22:48:21.498Z,10.30
2023-05-16T22:50:48.863Z,10.30
2023-05-16T22:53:16.235Z,10.40
2023-05-16T22:55:43.581Z,10.30
2023-05-16T22:58:10.916Z,10.30
2023-05-16T23:00:38.257Z,10.30
2023-05-16T23:03:06.398Z,10.30
2023-05-16T23:05:34.007Z,10.30
2023-05-16T23:08:02.486Z,10.30
2023-05-16T23:10:30.097Z,10.30
2023-05-16T23:12:57.530Z,10.30
2023-05-16T23:15:24.895Z,10.20
2023-05-16T23:17:52.321Z,10.20
2023-05-16T23:20:19.754Z,10.20
2023-05-16T23:22:47.133Z,10.20
2023-05-16T23:25:14.549Z,10.20
2023-05-16T23:27:41.884Z,10.10
2023-05-16T23:30:09.854Z,10.20
2023-05-16T23:32:37.233Z,10.10
2023-05-16T23:35:05.135Z,10.20
2023-05-16T23:37:32.537Z,10.10
2023-05-16T23:39:59.971Z,10.10
2023-05-16T23:42:27.354Z,10.10
2023-05-16T23:44:54.736Z,10.10
2023-05-16T23:47:22.507Z,10.10
2023-05-16T23:49:49.937Z,10.10
2023-05-16T23:52:17.317Z,10.10
2023-05-16T23:54:45.522Z,10.10
2023-05-16T23:57:12.884Z,10.10
2023-05-16T23:59:41.067Z,10.10
